createdAt,value
2015-07-08T00:00:12.069Z,95223
2015-07-08T00:00:30.491Z,95214
2015-07-08T00:00:48.975Z,95209
2015-07-08T00:01:07.460Z,95223
2015-07-08T00:01:26.056Z,95226
2015-07-08T00:01:44.415Z,95226
2015-07-08T00:02:02.852Z,95237
2015-07-08T00:02:21.292Z,95240
2015-07-08T00:02:39.714Z,95254
2015-07-08T00:02:58.214Z,95265
2015-07-08T00:03:16.871Z,95274
2015-07-08T00:03:35.324Z,95290
2015-07-08T00:03:53.699Z,95298
2015-07-08T00:04:12.199Z,95315
2015-07-08T00:04:30.749Z,95331
2015-07-08T00:04:49.140Z,95339
2015-07-08T00:05:07.562Z,95350
2015-07-08T00:05:25.906Z,95356
2015-07-08T00:05:44.328Z,95368
2015-07-08T00:06:02.703Z,95359
2015-07-08T00:06:21.236Z,95348
2015-07-08T00:06:39.627Z,95334
2015-07-08T00:06:58.080Z,95326
2015-07-08T00:07:16.690Z,95312
2015-07-08T00:07:35.099Z,95295
2015-07-08T00:07:53.474Z,95270
2015-07-08T00:08:12.130Z,95254
2015-07-08T00:08:30.554Z,95234
2015-07-08T00:08:48.460Z,95232
2015-07-08T00:09:06.882Z,95214
2015-07-08T00:09:25.258Z,95219
2015-07-08T00:09:43.664Z,95213
2015-07-08T00:10:02.242Z,95215
2015-07-08T00:10:21.024Z,95222
2015-07-08T00:10:39.479Z,95214
2015-07-08T00:10:58.151Z,95223
2015-07-08T00:11:16.635Z,95226
2015-07-08T00:11:34.997Z,95227
2015-07-08T00:11:53.404Z,95233
2015-07-08T00:12:11.841Z,95230
2015-07-08T00:12:30.390Z,95241
2015-07-08T00:12:48.812Z,95230
2015-07-08T00:13:07.484Z,95225
2015-07-08T00:13:25.906Z,95233
2015-07-08T00:13:44.408Z,95230
2015-07-08T00:14:02.830Z,95224
2015-07-08T00:14:21.283Z,95212
2015-07-08T00:14:39.738Z,95206
2015-07-08T00:14:58.222Z,95218
2015-07-08T00:15:16.644Z,95212
2015-07-08T00:15:35.209Z,95206
2015-07-08T00:15:53.677Z,95218
2015-07-08T00:16:12.130Z,95212
2015-07-08T00:16:30.505Z,95220
2015-07-08T00:16:48.914Z,95223
2015-07-08T00:17:07.429Z,95225
2015-07-08T00:17:25.882Z,95228
2015-07-08T00:17:44.525Z,95236
2015-07-08T00:18:02.994Z,95238
2015-07-08T00:18:21.478Z,95233
2015-07-08T00:18:39.963Z,95236
2015-07-08T00:18:58.355Z,95245
2015-07-08T00:19:17.027Z,95248
2015-07-08T00:19:35.605Z,95250
2015-07-08T00:19:53.981Z,95264
2015-07-08T00:20:12.591Z,95250
2015-07-08T00:20:30.966Z,95255
2015-07-08T00:20:49.359Z,95261
2015-07-08T00:21:07.890Z,95263
2015-07-08T00:21:26.390Z,95270
2015-07-08T00:21:44.984Z,95265
2015-07-08T00:22:03.471Z,95276
2015-07-08T00:22:21.908Z,95267
2015-07-08T00:22:40.267Z,95264
2015-07-08T00:22:58.753Z,95264
2015-07-08T00:23:17.112Z,95267
2015-07-08T00:23:35.675Z,95258
2015-07-08T00:23:54.068Z,95272
2015-07-08T00:24:12.521Z,95255
2015-07-08T00:24:31.209Z,95269
2015-07-08T00:24:49.663Z,95261
2015-07-08T00:25:08.226Z,95278
2015-07-08T00:25:26.679Z,95260
2015-07-08T00:25:45.116Z,95257
2015-07-08T00:26:03.572Z,95256
2015-07-08T00:26:22.010Z,95256
2015-07-08T00:26:40.494Z,95249
2015-07-08T00:26:58.901Z,95251
2015-07-08T00:27:17.495Z,95246
2015-07-08T00:27:35.886Z,95252
2015-07-08T00:27:54.357Z,95247
2015-07-08T00:28:12.888Z,95241
2015-07-08T00:28:31.357Z,95239
2015-07-08T00:28:49.825Z,95240
2015-07-08T00:29:08.218Z,95234
2015-07-08T00:29:26.640Z,95237
2015-07-08T00:29:45.202Z,95234
2015-07-08T00:30:03.657Z,95237
2015-07-08T00:30:22.111Z,95253
2015-07-08T00:30:40.486Z,95248
2015-07-08T00:30:58.988Z,95245
2015-07-08T00:31:17.378Z,95246
2015-07-08T00:31:35.925Z,95251
2015-07-08T00:31:54.300Z,95257
2015-07-08T00:32:12.802Z,95256
2015-07-08T00:32:31.224Z,95262
2015-07-08T00:32:49.786Z,95264
2015-07-08T00:33:08.195Z,95265
2015-07-08T00:33:26.617Z,95273
2015-07-08T00:33:45.054Z,95270
2015-07-08T00:34:03.494Z,95270
2015-07-08T00:34:21.900Z,95282
2015-07-08T00:34:40.290Z,95277
2015-07-08T00:34:58.665Z,95273
2015-07-08T00:35:17.167Z,95267
2015-07-08T00:35:35.589Z,95279
2015-07-08T00:35:54.011Z,95276
2015-07-08T00:36:12.466Z,95287
2015-07-08T00:36:30.966Z,95281
2015-07-08T00:36:49.357Z,95292
2015-07-08T00:37:07.763Z,95279
2015-07-08T00:37:26.328Z,95287
2015-07-08T00:37:44.062Z,95284
2015-07-08T00:38:02.531Z,95297
2015-07-08T00:38:21.127Z,95286
2015-07-08T00:38:39.548Z,95288
2015-07-08T00:38:57.955Z,95293
2015-07-08T00:39:16.345Z,95302
2015-07-08T00:39:34.722Z,95296
2015-07-08T00:39:53.144Z,95302
2015-07-08T00:40:11.691Z,95302
2015-07-08T00:40:30.240Z,95308
2015-07-08T00:40:48.709Z,95299
2015-07-08T00:41:07.209Z,95302
2015-07-08T00:41:25.742Z,95307
2015-07-08T00:41:44.211Z,95305
2015-07-08T00:42:02.789Z,95316
2015-07-08T00:42:21.195Z,95296
2015-07-08T00:42:39.900Z,95296
2015-07-08T00:42:58.447Z,95297
2015-07-08T00:43:17.010Z,95294
2015-07-08T00:43:35.558Z,95291
2015-07-08T00:43:53.965Z,95293
2015-07-08T00:44:12.480Z,95301
2015-07-08T00:44:30.873Z,95296
2015-07-08T00:44:49.404Z,95292
2015-07-08T00:45:08.014Z,95291
2015-07-08T00:45:26.560Z,95292
2015-07-08T00:45:44.969Z,95294
2015-07-08T00:46:03.375Z,95290
2015-07-08T00:46:21.781Z,95294
2015-07-08T00:46:40.174Z,95300
2015-07-08T00:46:58.611Z,95294
2015-07-08T00:47:17.064Z,95293
2015-07-08T00:47:35.582Z,95302
2015-07-08T00:47:53.988Z,95299
2015-07-08T00:48:12.441Z,95285
2015-07-08T00:48:30.865Z,95291
2015-07-08T00:48:49.303Z,95290
2015-07-08T00:49:07.756Z,95291
2015-07-08T00:49:26.334Z,95290
2015-07-08T00:49:44.930Z,95286
2015-07-08T00:50:03.305Z,95291
2015-07-08T00:50:21.774Z,95280
2015-07-08T00:50:40.306Z,95286
2015-07-08T00:50:58.696Z,95286
2015-07-08T00:51:17.087Z,95298
2015-07-08T00:51:35.574Z,95285
2015-07-08T00:51:54.043Z,95285
2015-07-08T00:52:12.418Z,95292
2015-07-08T00:52:30.793Z,95281
2015-07-08T00:52:49.451Z,95280
2015-07-08T00:53:08.045Z,95277
2015-07-08T00:53:26.514Z,95271
2015-07-08T00:53:44.906Z,95276
2015-07-08T00:54:03.296Z,95277
2015-07-08T00:54:21.765Z,95277
2015-07-08T00:54:40.299Z,95272
2015-07-08T00:54:58.674Z,95281
2015-07-08T00:55:17.049Z,95279
2015-07-08T00:55:35.565Z,95279
2015-07-08T00:55:54.003Z,95284
2015-07-08T00:56:12.488Z,95290
2015-07-08T00:56:30.894Z,95281
2015-07-08T00:56:49.318Z,95289
2015-07-08T00:57:07.677Z,95289
2015-07-08T00:57:26.333Z,95292
2015-07-08T00:57:44.851Z,95300
2015-07-08T00:58:03.226Z,95293
2015-07-08T00:58:21.710Z,95295
2015-07-08T00:58:40.070Z,95290
2015-07-08T00:58:58.525Z,95287
2015-07-08T00:59:16.978Z,95294
2015-07-08T00:59:35.416Z,95290
2015-07-08T00:59:53.903Z,95292
2015-07-08T01:00:12.512Z,95293
2015-07-08T01:00:30.965Z,95293
2015-07-08T01:00:49.686Z,95297
2015-07-08T01:01:08.124Z,95294
2015-07-08T01:01:26.546Z,95306
2015-07-08T01:01:45.014Z,95298
2015-07-08T01:02:03.468Z,95293
2015-07-08T01:02:21.922Z,95298
2015-07-08T01:02:40.343Z,95293
2015-07-08T01:02:58.812Z,95294
2015-07-08T01:03:17.221Z,95294
2015-07-08T01:03:35.675Z,95299
2015-07-08T01:03:54.034Z,95289
2015-07-08T01:04:12.411Z,95296
2015-07-08T01:04:30.864Z,95296
2015-07-08T01:04:49.270Z,95299
2015-07-08T01:05:07.710Z,95299
2015-07-08T01:05:26.085Z,95299
2015-07-08T01:05:44.647Z,95307
2015-07-08T01:06:03.100Z,95298
2015-07-08T01:06:21.602Z,95303
2015-07-08T01:06:40.056Z,95309
2015-07-08T01:06:58.431Z,95303
2015-07-08T01:07:16.808Z,95309
2015-07-08T01:07:35.339Z,95318
2015-07-08T01:07:53.917Z,95323
2015-07-08T01:08:12.308Z,95323
2015-07-08T01:08:30.841Z,95322
2015-07-08T01:08:49.419Z,95336
2015-07-08T01:09:07.919Z,95331
2015-07-08T01:09:26.483Z,95340
2015-07-08T01:09:44.858Z,95329
2015-07-08T01:10:03.327Z,95343
2015-07-08T01:10:22.079Z,95337
2015-07-08T01:10:40.642Z,95343
2015-07-08T01:10:59.079Z,95352
2015-07-08T01:11:17.486Z,95344
2015-07-08T01:11:35.940Z,95344
2015-07-08T01:11:54.361Z,95346
2015-07-08T01:12:12.846Z,95337
2015-07-08T01:12:31.396Z,95349
2015-07-08T01:12:50.083Z,95348
2015-07-08T01:13:08.458Z,95352
2015-07-08T01:13:26.882Z,95340
2015-07-08T01:13:45.320Z,95343
2015-07-08T01:14:03.710Z,95344
2015-07-08T01:14:22.133Z,95340
2015-07-08T01:14:40.555Z,95338
2015-07-08T01:14:58.930Z,95327
2015-07-08T01:15:17.399Z,95336
2015-07-08T01:15:35.792Z,95332
2015-07-08T01:15:54.199Z,95330
2015-07-08T01:16:12.636Z,95330
2015-07-08T01:16:31.246Z,95322
2015-07-08T01:16:49.840Z,95325
2015-07-08T01:17:08.246Z,95314
2015-07-08T01:17:26.686Z,95330
2015-07-08T01:17:45.061Z,95311
2015-07-08T01:18:03.577Z,95318
2015-07-08T01:18:22.123Z,95320
2015-07-08T01:18:40.547Z,95303
2015-07-08T01:18:58.969Z,95314
2015-07-08T01:19:17.422Z,95306
2015-07-08T01:19:35.831Z,95315
2015-07-08T01:19:54.252Z,95311
2015-07-08T01:20:12.815Z,95320
2015-07-08T01:20:31.255Z,95313
2015-07-08T01:20:49.646Z,95308
2015-07-08T01:21:08.130Z,95322
2015-07-08T01:21:26.709Z,95311
2015-07-08T01:21:45.225Z,95324
2015-07-08T01:22:03.678Z,95323
2015-07-08T01:22:22.397Z,95314
2015-07-08T01:22:40.899Z,95320
2015-07-08T01:22:59.337Z,95315
2015-07-08T01:23:17.821Z,95310
2015-07-08T01:23:36.229Z,95329
2015-07-08T01:23:54.714Z,95323
2015-07-08T01:24:13.073Z,95308
2015-07-08T01:24:32.153Z,95325
2015-07-08T01:24:50.575Z,95319
2015-07-08T01:25:09.075Z,95309
2015-07-08T01:25:27.512Z,95311
2015-07-08T01:25:46.014Z,95308
2015-07-08T01:26:04.468Z,95322
2015-07-08T01:26:23.139Z,95324
2015-07-08T01:26:41.532Z,95328
2015-07-08T01:26:59.938Z,95325
2015-07-08T01:27:18.376Z,95324
2015-07-08T01:27:36.813Z,95342
2015-07-08T01:27:55.347Z,95330
2015-07-08T01:28:13.784Z,95336
2015-07-08T01:28:32.206Z,95337
2015-07-08T01:28:50.552Z,95339
2015-07-08T01:29:08.958Z,95344
2015-07-08T01:29:27.349Z,95346
2015-07-08T01:29:46.005Z,95345
2015-07-08T01:30:04.507Z,95348
2015-07-08T01:30:22.991Z,95344
2015-07-08T01:30:41.382Z,95356
2015-07-08T01:30:59.931Z,95361
2015-07-08T01:31:18.478Z,95356
2015-07-08T01:31:36.899Z,95353
2015-07-08T01:31:55.480Z,95356
2015-07-08T01:32:13.917Z,95357
2015-07-08T01:32:32.370Z,95347
2015-07-08T01:32:50.776Z,95343
2015-07-08T01:33:09.232Z,95337
2015-07-08T01:33:27.653Z,95342
2015-07-08T01:33:46.091Z,95345
2015-07-08T01:34:04.562Z,95343
2015-07-08T01:34:23.296Z,95348
2015-07-08T01:34:41.749Z,95350
2015-07-08T01:35:00.157Z,95345
2015-07-08T01:35:18.564Z,95351
2015-07-08T01:35:37.079Z,95351
2015-07-08T01:35:55.675Z,95340
2015-07-08T01:36:14.034Z,95349
2015-07-08T01:36:32.519Z,95343
2015-07-08T01:36:51.003Z,95357
2015-07-08T01:37:09.426Z,95352
2015-07-08T01:37:27.957Z,95358
2015-07-08T01:37:46.551Z,95357
2015-07-08T01:38:05.038Z,95357
2015-07-08T01:38:23.492Z,95351
2015-07-08T01:38:42.163Z,95350
2015-07-08T01:39:00.572Z,95350
2015-07-08T01:39:19.040Z,95347
2015-07-08T01:39:37.556Z,95346
2015-07-08T01:39:56.009Z,95343
2015-07-08T01:40:14.511Z,95343
2015-07-08T01:40:32.964Z,95348
2015-07-08T01:40:51.589Z,95343
2015-07-08T01:41:10.154Z,95345
2015-07-08T01:41:28.560Z,95345
2015-07-08T01:41:47.060Z,95337
2015-07-08T01:42:05.561Z,95350
2015-07-08T01:42:23.999Z,95358
2015-07-08T01:42:42.577Z,95343
2015-07-08T01:43:01.202Z,95349
2015-07-08T01:43:19.735Z,95347
2015-07-08T01:43:38.219Z,95362
2015-07-08T01:43:56.610Z,95351
2015-07-08T01:44:15.050Z,95348
2015-07-08T01:44:33.457Z,95353
2015-07-08T01:44:51.816Z,95348
2015-07-08T01:45:09.552Z,95348
2015-07-08T01:45:28.052Z,95350
2015-07-08T01:45:46.506Z,95336
2015-07-08T01:46:05.209Z,95350
2015-07-08T01:46:23.633Z,95347
2015-07-08T01:46:42.195Z,95344
2015-07-08T01:47:00.726Z,95344
2015-07-08T01:47:19.306Z,95337
2015-07-08T01:47:37.822Z,95344
2015-07-08T01:47:56.213Z,95340
2015-07-08T01:48:14.635Z,95328
2015-07-08T01:48:33.182Z,95330
2015-07-08T01:48:51.620Z,95335
2015-07-08T01:49:09.495Z,95333
2015-07-08T01:49:28.060Z,95333
2015-07-08T01:49:46.529Z,95343
2015-07-08T01:50:05.029Z,95333
2015-07-08T01:50:23.641Z,95324
2015-07-08T01:50:42.094Z,95336
2015-07-08T01:51:00.500Z,95336
2015-07-08T01:51:18.250Z,95338
2015-07-08T01:51:36.626Z,95335
2015-07-08T01:51:55.220Z,95331
2015-07-08T01:52:13.579Z,95326
2015-07-08T01:52:32.066Z,95325
2015-07-08T01:52:50.566Z,95336
2015-07-08T01:53:08.988Z,95332
2015-07-08T01:53:27.629Z,95327
2015-07-08T01:53:46.287Z,95321
2015-07-08T01:54:04.818Z,95330
2015-07-08T01:54:23.272Z,95318
2015-07-08T01:54:41.694Z,95323
2015-07-08T01:55:00.132Z,95323
2015-07-08T01:55:18.507Z,95325
2015-07-08T01:55:37.023Z,95322
2015-07-08T01:55:55.760Z,95319
2015-07-08T01:56:14.307Z,95321
2015-07-08T01:56:32.963Z,95321
2015-07-08T01:56:51.527Z,95312
2015-07-08T01:57:10.105Z,95315
2015-07-08T01:57:28.589Z,95309
2015-07-08T01:57:46.998Z,95315
2015-07-08T01:58:05.451Z,95318
2015-07-08T01:58:23.858Z,95316
2015-07-08T01:58:42.266Z,95328
2015-07-08T01:59:00.891Z,95323
2015-07-08T01:59:19.266Z,95325
2015-07-08T01:59:37.625Z,95319
2015-07-08T01:59:56.018Z,95324
2015-07-08T02:00:14.534Z,95322
2015-07-08T02:00:33.096Z,95318
2015-07-08T02:00:51.520Z,95319
2015-07-08T02:01:10.129Z,95328
2015-07-08T02:01:28.614Z,95328
2015-07-08T02:01:47.116Z,95325
2015-07-08T02:02:05.538Z,95326
2015-07-08T02:02:23.944Z,95328
2015-07-08T02:02:42.303Z,95317
2015-07-08T02:03:00.914Z,95330
2015-07-08T02:03:19.414Z,95316
2015-07-08T02:03:37.960Z,95316
2015-07-08T02:03:56.603Z,95322
2015-07-08T02:04:14.978Z,95308
2015-07-08T02:04:33.369Z,95312
2015-07-08T02:04:51.902Z,95322
2015-07-08T02:05:10.464Z,95308
2015-07-08T02:05:28.886Z,95305
2015-07-08T02:05:47.464Z,95318
2015-07-08T02:06:05.935Z,95315
2015-07-08T02:06:24.388Z,95318
2015-07-08T02:06:42.966Z,95303
2015-07-08T02:07:01.468Z,95315
2015-07-08T02:07:19.937Z,95309
2015-07-08T02:07:38.328Z,95308
2015-07-08T02:07:57.142Z,95317
2015-07-08T02:08:15.564Z,95308
2015-07-08T02:08:34.111Z,95308
2015-07-08T02:08:52.689Z,95308
2015-07-08T02:09:11.113Z,95297
2015-07-08T02:09:29.863Z,95305
2015-07-08T02:09:55.256Z,95302
2015-07-08T02:10:13.756Z,95300
2015-07-08T02:10:32.287Z,95300
2015-07-08T02:10:50.849Z,95303
2015-07-08T02:11:09.383Z,95305
2015-07-08T02:11:27.773Z,95308
2015-07-08T02:11:46.289Z,95293
2015-07-08T02:12:04.713Z,95298
2015-07-08T02:12:22.447Z,95295
2015-07-08T02:12:40.885Z,95299
2015-07-08T02:12:59.324Z,95305
2015-07-08T02:13:17.699Z,95308
2015-07-08T02:13:36.137Z,95304
2015-07-08T02:13:54.590Z,95313
2015-07-08T02:14:12.998Z,95312
2015-07-08T02:14:31.701Z,95311
2015-07-08T02:14:50.061Z,95311
2015-07-08T02:15:08.609Z,95308
2015-07-08T02:15:27.047Z,95319
2015-07-08T02:15:45.438Z,95310
2015-07-08T02:16:04.018Z,95313
2015-07-08T02:16:22.486Z,95304
2015-07-08T02:16:40.924Z,95310
2015-07-08T02:16:59.363Z,95307
2015-07-08T02:17:17.785Z,95310
2015-07-08T02:17:36.520Z,95310
2015-07-08T02:17:55.051Z,95307
2015-07-08T02:18:13.536Z,95305
2015-07-08T02:18:31.911Z,95312
2015-07-08T02:18:50.396Z,95315
2015-07-08T02:19:08.945Z,95314
2015-07-08T02:19:27.320Z,95314
2015-07-08T02:19:45.726Z,95314
2015-07-08T02:20:04.198Z,95311
2015-07-08T02:20:22.604Z,95314
2015-07-08T02:20:41.057Z,95314
2015-07-08T02:20:59.479Z,95311
2015-07-08T02:21:17.855Z,95310
2015-07-08T02:21:36.308Z,95304
2015-07-08T02:21:54.902Z,95316
2015-07-08T02:22:13.576Z,95310
2015-07-08T02:22:32.107Z,95302
2015-07-08T02:22:49.904Z,95301
2015-07-08T02:23:08.265Z,95307
2015-07-08T02:23:26.734Z,95305
2015-07-08T02:23:45.203Z,95306
2015-07-08T02:24:03.859Z,95318
2015-07-08T02:24:22.220Z,95303
2015-07-08T02:24:40.626Z,95305
2015-07-08T02:24:59.048Z,95311
2015-07-08T02:25:17.660Z,95314
2015-07-08T02:25:36.128Z,95317
2015-07-08T02:25:54.722Z,95300
2015-07-08T02:26:13.255Z,95306
2015-07-08T02:26:31.912Z,95312
2015-07-08T02:26:50.537Z,95309
2015-07-08T02:27:09.005Z,95314
2015-07-08T02:27:26.773Z,95314
2015-07-08T02:27:45.148Z,95305
2015-07-08T02:28:03.617Z,95308
2015-07-08T02:28:22.042Z,95316
2015-07-08T02:28:40.542Z,95313
2015-07-08T02:28:59.042Z,95310
2015-07-08T02:29:17.510Z,95310
2015-07-08T02:29:36.168Z,95319
2015-07-08T02:29:54.652Z,95316
2015-07-08T02:30:13.152Z,95325
2015-07-08T02:30:31.546Z,95316
2015-07-08T02:30:50.030Z,95321
2015-07-08T02:31:08.530Z,95318
2015-07-08T02:31:26.890Z,95319
2015-07-08T02:31:45.375Z,95314
2015-07-08T02:32:03.797Z,95316
2015-07-08T02:32:22.281Z,95325
2015-07-08T02:32:40.706Z,95322
2015-07-08T02:32:59.112Z,95325
2015-07-08T02:33:17.518Z,95318
2015-07-08T02:33:35.988Z,95323
2015-07-08T02:33:54.394Z,95320
2015-07-08T02:34:12.754Z,95319
2015-07-08T02:34:31.193Z,95314
2015-07-08T02:34:49.600Z,95316
2015-07-08T02:35:08.084Z,95317
2015-07-08T02:35:26.506Z,95317
2015-07-08T02:35:45.055Z,95311
2015-07-08T02:36:03.727Z,95314
2015-07-08T02:36:22.133Z,95316
2015-07-08T02:36:40.525Z,95316
2015-07-08T02:36:58.994Z,95316
2015-07-08T02:37:17.369Z,95317
2015-07-08T02:37:35.793Z,95320
2015-07-08T02:37:54.231Z,95320
2015-07-08T02:38:12.637Z,95320
2015-07-08T02:38:31.152Z,95320
2015-07-08T02:38:49.826Z,95315
2015-07-08T02:39:08.233Z,95319
2015-07-08T02:39:26.108Z,95316
2015-07-08T02:39:44.531Z,95325
2015-07-08T02:40:03.000Z,95316
2015-07-08T02:40:21.375Z,95316
2015-07-08T02:40:39.862Z,95308
2015-07-08T02:40:58.237Z,95317
2015-07-08T02:41:16.612Z,95306
2015-07-08T02:41:35.049Z,95309
2015-07-08T02:41:53.598Z,95308
2015-07-08T02:42:12.067Z,95310
2015-07-08T02:42:30.442Z,95310
2015-07-08T02:42:48.944Z,95308
2015-07-08T02:43:07.381Z,95305
2015-07-08T02:43:25.803Z,95311
2015-07-08T02:43:44.321Z,95311
2015-07-08T02:44:02.993Z,95313
2015-07-08T02:44:21.602Z,95303
2015-07-08T02:44:40.010Z,95309
2015-07-08T02:44:58.588Z,95308
2015-07-08T02:45:17.057Z,95307
2015-07-08T02:45:35.526Z,95308
2015-07-08T02:45:53.981Z,95305
2015-07-08T02:46:12.512Z,95318
2015-07-08T02:46:39.936Z,95315
2015-07-08T02:46:58.311Z,95309
2015-07-08T02:47:16.733Z,95315
2015-07-08T02:47:35.108Z,95312
2015-07-08T02:47:53.422Z,95309
2015-07-08T02:48:11.891Z,95312
2015-07-08T02:48:30.329Z,95313
2015-07-08T02:48:48.955Z,95312
2015-07-08T02:49:07.517Z,95318
2015-07-08T02:49:25.955Z,95312
2015-07-08T02:49:44.377Z,95320
2015-07-08T02:50:02.770Z,95326
2015-07-08T02:50:21.145Z,95323
2015-07-08T02:50:39.661Z,95328
2015-07-08T02:50:58.053Z,95323
2015-07-08T02:51:16.460Z,95323
2015-07-08T02:51:34.913Z,95318
2015-07-08T02:51:53.571Z,95323
2015-07-08T02:52:11.946Z,95320
2015-07-08T02:52:30.540Z,95328
2015-07-08T02:52:48.464Z,95323
2015-07-08T02:53:06.995Z,95314
2015-07-08T02:53:25.448Z,95326
2015-07-08T02:53:43.807Z,95334
2015-07-08T02:54:02.215Z,95331
2015-07-08T02:54:20.652Z,95326
2015-07-08T02:54:39.105Z,95321
2015-07-08T02:54:57.514Z,95323
2015-07-08T02:55:16.076Z,95309
2015-07-08T02:55:34.639Z,95320
2015-07-08T02:55:53.016Z,95325
2015-07-08T02:56:11.422Z,95325
2015-07-08T02:56:29.781Z,95328
2015-07-08T02:56:48.406Z,95328
2015-07-08T02:57:07.205Z,95331
2015-07-08T02:57:25.799Z,95332
2015-07-08T02:57:44.252Z,95329
2015-07-08T02:58:02.833Z,95332
2015-07-08T02:58:21.255Z,95326
2015-07-08T02:58:39.692Z,95321
2015-07-08T02:58:58.131Z,95330
2015-07-08T02:59:16.600Z,95326
2015-07-08T02:59:34.975Z,95326
2015-07-08T02:59:53.381Z,95320
2015-07-08T03:00:11.883Z,95323
2015-07-08T03:00:30.445Z,95324
2015-07-08T03:00:48.867Z,95316
2015-07-08T03:01:07.307Z,95327
2015-07-08T03:01:25.994Z,95318
2015-07-08T03:01:44.401Z,95323
2015-07-08T03:02:02.903Z,95318
2015-07-08T03:02:21.278Z,95330
2015-07-08T03:02:39.715Z,95321
2015-07-08T03:02:58.137Z,95327
2015-07-08T03:03:16.561Z,95331
2015-07-08T03:03:34.998Z,95317
2015-07-08T03:03:53.358Z,95325
2015-07-08T03:04:11.735Z,95324
2015-07-08T03:04:30.110Z,95324
2015-07-08T03:04:47.844Z,95318
2015-07-08T03:05:06.534Z,95332
2015-07-08T03:05:24.955Z,95329
2015-07-08T03:05:43.393Z,95329
2015-07-08T03:06:01.784Z,95327
2015-07-08T03:06:20.301Z,95321
2015-07-08T03:06:38.707Z,95320
2015-07-08T03:06:57.270Z,95326
2015-07-08T03:07:15.647Z,95323
2015-07-08T03:07:34.038Z,95332
2015-07-08T03:07:52.506Z,95327
2015-07-08T03:08:10.975Z,95338
2015-07-08T03:08:29.571Z,95333
2015-07-08T03:08:48.071Z,95329
2015-07-08T03:09:06.430Z,95326
2015-07-08T03:09:24.807Z,95330
2015-07-08T03:09:43.417Z,95338
2015-07-08T03:10:01.932Z,95332
2015-07-08T03:10:20.356Z,95332
2015-07-08T03:10:38.731Z,95332
2015-07-08T03:10:57.106Z,95340
2015-07-08T03:11:15.559Z,95337
2015-07-08T03:11:33.952Z,95332
2015-07-08T03:11:52.342Z,95326
2015-07-08T03:12:10.749Z,95332
2015-07-08T03:12:29.235Z,95334
2015-07-08T03:12:47.594Z,95336
2015-07-08T03:13:05.969Z,95331
2015-07-08T03:13:24.376Z,95322
2015-07-08T03:13:42.909Z,95327
2015-07-08T03:14:01.471Z,95319
2015-07-08T03:14:19.925Z,95325
2015-07-08T03:14:38.286Z,95322
2015-07-08T03:14:56.802Z,95324
2015-07-08T03:15:15.177Z,95327
2015-07-08T03:15:33.585Z,95321
2015-07-08T03:15:52.022Z,95321
2015-07-08T03:16:10.741Z,95318
2015-07-08T03:16:28.679Z,95318
2015-07-08T03:16:47.118Z,95329
2015-07-08T03:17:05.649Z,95321
2015-07-08T03:17:24.321Z,95333
2015-07-08T03:17:42.714Z,95328
2015-07-08T03:18:01.120Z,95322
2015-07-08T03:18:19.792Z,95325
2015-07-08T03:18:38.231Z,95325
2015-07-08T03:18:56.638Z,95325
2015-07-08T03:19:14.919Z,95326
2015-07-08T03:19:33.358Z,95318
2015-07-08T03:19:52.140Z,95326
2015-07-08T03:20:10.655Z,95329
2015-07-08T03:20:29.046Z,95328
2015-07-08T03:20:47.484Z,95323
2015-07-08T03:21:05.859Z,95327
2015-07-08T03:21:24.328Z,95329
2015-07-08T03:21:42.769Z,95329
2015-07-08T03:22:01.206Z,95326
2015-07-08T03:22:19.566Z,95331
2015-07-08T03:22:37.957Z,95326
2015-07-08T03:22:56.551Z,95335
2015-07-08T03:23:15.051Z,95332
2015-07-08T03:23:33.488Z,95329
2015-07-08T03:23:51.882Z,95332
2015-07-08T03:24:10.273Z,95326
2015-07-08T03:24:28.804Z,95327
2015-07-08T03:24:47.180Z,95316
2015-07-08T03:25:05.555Z,95318
2015-07-08T03:25:23.946Z,95318
2015-07-08T03:25:42.527Z,95321
2015-07-08T03:26:00.886Z,95323
2015-07-08T03:26:19.261Z,95328
2015-07-08T03:26:37.839Z,95326
2015-07-08T03:26:56.247Z,95324
2015-07-08T03:27:14.638Z,95323
2015-07-08T03:27:33.122Z,95332
2015-07-08T03:27:51.592Z,95326
2015-07-08T03:28:09.952Z,95331
2015-07-08T03:28:28.405Z,95337
2015-07-08T03:28:47.032Z,95340
2015-07-08T03:29:05.422Z,95336
2015-07-08T03:29:23.844Z,95336
2015-07-08T03:29:42.297Z,95336
2015-07-08T03:30:00.706Z,95333
2015-07-08T03:30:19.159Z,95342
2015-07-08T03:30:37.534Z,95330
2015-07-08T03:30:55.912Z,95342
2015-07-08T03:31:14.287Z,95339
2015-07-08T03:31:32.662Z,95333
2015-07-08T03:31:51.038Z,95345
2015-07-08T03:32:09.553Z,95340
2015-07-08T03:32:27.960Z,95340
2015-07-08T03:32:46.428Z,95334
2015-07-08T03:33:04.806Z,95328
2015-07-08T03:33:23.181Z,95320
2015-07-08T03:33:41.759Z,95329
2015-07-08T03:34:00.151Z,95324
2015-07-08T03:34:18.557Z,95326
2015-07-08T03:34:36.979Z,95326
2015-07-08T03:34:55.464Z,95326
2015-07-08T03:35:13.856Z,95318
2015-07-08T03:35:32.262Z,95314
2015-07-08T03:35:50.747Z,95322
2015-07-08T03:36:09.155Z,95328
2015-07-08T03:36:27.561Z,95328
2015-07-08T03:36:46.014Z,95337
2015-07-08T03:37:04.358Z,95328
2015-07-08T03:37:22.846Z,95323
2015-07-08T03:37:41.299Z,95320
2015-07-08T03:37:59.736Z,95314
2015-07-08T03:38:18.159Z,95320
2015-07-08T03:38:36.768Z,95322
2015-07-08T03:38:55.128Z,95322
2015-07-08T03:39:13.709Z,95325
2015-07-08T03:39:32.631Z,95320
2015-07-08T03:39:51.053Z,95326
2015-07-08T03:40:09.662Z,95317
2015-07-08T03:40:28.038Z,95315
2015-07-08T03:40:46.632Z,95321
2015-07-08T03:41:05.007Z,95323
2015-07-08T03:41:23.415Z,95320
2015-07-08T03:41:41.837Z,95317
2015-07-08T03:42:00.212Z,95314
2015-07-08T03:42:18.698Z,95320
2015-07-08T03:42:37.136Z,95317
2015-07-08T03:42:55.511Z,95323
2015-07-08T03:43:13.995Z,95315
2015-07-08T03:43:32.544Z,95309
2015-07-08T03:43:51.107Z,95312
2015-07-08T03:44:09.482Z,95306
2015-07-08T03:44:28.015Z,95317
2015-07-08T03:44:46.546Z,95309
2015-07-08T03:45:04.937Z,95320
2015-07-08T03:45:23.345Z,95317
2015-07-08T03:45:41.845Z,95306
2015-07-08T03:46:00.251Z,95312
2015-07-08T03:46:18.706Z,95317
2015-07-08T03:46:37.206Z,95317
2015-07-08T03:46:55.566Z,95320
2015-07-08T03:47:13.988Z,95323
2015-07-08T03:47:32.427Z,95314
2015-07-08T03:47:50.833Z,95314
2015-07-08T03:48:09.380Z,95313
2015-07-08T03:48:27.929Z,95319
2015-07-08T03:48:46.492Z,95316
2015-07-08T03:49:05.007Z,95319
2015-07-08T03:49:23.603Z,95324
2015-07-08T03:49:42.025Z,95321
2015-07-08T03:50:00.400Z,95322
2015-07-08T03:50:18.806Z,95313
2015-07-08T03:50:37.308Z,95319
2015-07-08T03:50:55.777Z,95316
2015-07-08T03:51:14.417Z,95322
2015-07-08T03:51:32.904Z,95319
2015-07-08T03:51:51.466Z,95328
2015-07-08T03:52:09.982Z,95316
2015-07-08T03:52:28.421Z,95316
2015-07-08T03:52:46.953Z,95310
2015-07-08T03:53:05.328Z,95322
2015-07-08T03:53:23.718Z,95316
2015-07-08T03:53:42.172Z,95316
2015-07-08T03:54:00.547Z,95316
2015-07-08T03:54:18.969Z,95310
2015-07-08T03:54:37.378Z,95313
2015-07-08T03:54:55.815Z,95316
2015-07-08T03:55:14.284Z,95307
2015-07-08T03:55:32.708Z,95310
2015-07-08T03:55:51.223Z,95308
2015-07-08T03:56:09.630Z,95316
2015-07-08T03:56:28.208Z,95308
2015-07-08T03:56:46.898Z,95310
2015-07-08T03:57:04.726Z,95307
2015-07-08T03:57:23.242Z,95302
2015-07-08T03:57:41.775Z,95306
2015-07-08T03:58:00.338Z,95314